Elimsport, Pennsylvania
Current Conditions -  °F | °C
As of 1:54 AM on Thursday 18 Dec 2014 (Local Time) from KIPT Reporting Station
Overcast Overcast  
Wind Chill: -4°   Ceiling: 5000
Heat Index:   Visibility: 10mi
Dew Point: -6°   Wind: 13mph
Humidity: 61%   Direction: 270°W
Pressure: 30"   Gusts: NA
Location:  41.1181°N, 77.0218°W
Report Text: KIPT 180654Z AUTO 27011KT 10SM OVC050 01/M06 A3000 RMK AO2 SLP163 T00111056
Loading
Personal Weather Stations






























Interactive Weather Map New forecast layout! Learn more

10-Day Weather Forecast

Advertisements
Track Severe Weather on mobile